PWSweather.com
Personal Weather Stations
Station Observations
WSLEMBEKE
Flanders, LembekeBE 9971

FlandersLembekeBE 9971

Lat: 51.1917315, Lon: 3.6361177999999654

Elevation: 21

Station Type: Davis Vantage Pro2

Latest ConditionsUpdated 9:51:18 PM GMT+01:01 Monday, Sep 23, 2019
Currently Today's Max Today's Min Today's Average
Temperature 62.4°F16.9°C 71.8°F22.1°C 57.4°F14.1°C 63.5°F17.5°C
Dew Point 55.0°F12.8°C 60.8°F16.0°C 54.5°F12.5°C 57.2°F14.0°C
Winds 3.6 mph S5.8 kmh S 11.4 mph -18.3 kmh - - 4.9 mph 7.9 kmh
Wind Gusts 7.4 mph11.9 kmh 18.1 mph29.1 kmh - -
Humidity 77% 95% 60% 81%
Pressure 29.97 in1014.9 mb 29.98 in1015.2 mb 29.85 in1010.8 mb -
Precipitation - 0.01 in0.3 mm - -
Hour Temp Dew Point Humidity Winds Wind Gusts Pressure Precip Precip Rate Daily Precip Total
09:51 PM 62.4°F16.9°C 55.0°F12.8°C 77% 3.6 mph S5.8 kmh S 7.4 mph11.9 kmh 29.97 in1014.9 mb 0.00 in0.0 mm 0.00 in0.0 mm 0.01 in0.3 mm
09:46 PM 63.0°F17.2°C 55.2°F12.9°C 76% 4.3 mph S6.9 kmh S 9.6 mph15.4 kmh 29.97 in1014.9 mb 0.00 in0.0 mm 0.00 in0.0 mm 0.01 in0.3 mm
09:41 PM 63.1°F17.3°C 55.0°F12.8°C 75% 5.1 mph S8.2 kmh S 10.5 mph16.9 kmh 29.97 in1014.9 mb 0.00 in0.0 mm 0.00 in0.0 mm 0.01 in0.3 mm
09:36 PM 63.3°F17.4°C 54.9°F12.7°C 74% 4.3 mph S6.9 kmh S 9.6 mph15.4 kmh 29.97 in1014.9 mb 0.00 in0.0 mm 0.00 in0.0 mm 0.01 in0.3 mm
09:31 PM 63.7°F17.6°C 55.2°F12.9°C 74% 6.9 mph S11.1 kmh S 9.6 mph15.4 kmh 29.97 in1014.9 mb 0.00 in0.0 mm 0.00 in0.0 mm 0.01 in0.3 mm
09:26 PM 63.7°F17.6°C 54.9°F12.7°C 73% 5.4 mph S8.7 kmh S 9.6 mph15.4 kmh 29.97 in1014.9 mb 0.00 in0.0 mm 0.00 in0.0 mm 0.01 in0.3 mm
09:21 PM 63.7°F17.6°C 54.9°F12.7°C 73% 5.8 mph S9.3 kmh S 11.6 mph18.7 kmh 29.97 in1014.9 mb 0.00 in0.0 mm 0.00 in0.0 mm 0.01 in0.3 mm
09:16 PM 63.3°F17.4°C 54.5°F12.5°C 73% 6.0 mph SSE9.7 kmh SSE 8.5 mph13.7 kmh 29.97 in1014.9 mb 0.00 in0.0 mm 0.00 in0.0 mm 0.01 in0.3 mm
09:11 PM 63.3°F17.4°C 54.9°F12.7°C 74% 4.7 mph S7.6 kmh S 8.5 mph13.7 kmh 29.97 in1014.9 mb 0.00 in0.0 mm 0.00 in0.0 mm 0.01 in0.3 mm
09:06 PM 63.3°F17.4°C 54.9°F12.7°C 74% 3.6 mph S5.8 kmh S 8.5 mph13.7 kmh 29.97 in1014.9 mb 0.00 in0.0 mm 0.00 in0.0 mm 0.01 in0.3 mm
09:01 PM 63.1°F17.3°C 54.7°F12.6°C 74% 4.7 mph S7.6 kmh S 7.4 mph11.9 kmh 29.97 in1014.9 mb 0.00 in0.0 mm 0.00 in0.0 mm 0.01 in0.3 mm
08:56 PM 63.0°F17.2°C 54.9°F12.7°C 75% 5.1 mph SE8.2 kmh SE 8.5 mph13.7 kmh 29.97 in1014.9 mb 0.00 in0.0 mm 0.00 in0.0 mm 0.01 in0.3 mm
08:51 PM 62.8°F17.1°C 54.7°F12.6°C 75% 4.3 mph SSE6.9 kmh SSE 8.5 mph13.7 kmh 29.97 in1014.9 mb 0.00 in0.0 mm 0.00 in0.0 mm 0.01 in0.3 mm
08:46 PM 62.8°F17.1°C 55.0°F12.8°C 76% 3.8 mph SSW6.1 kmh SSW 7.4 mph11.9 kmh 29.97 in1014.9 mb 0.00 in0.0 mm 0.00 in0.0 mm 0.01 in0.3 mm
08:41 PM 62.6°F17.0°C 54.9°F12.7°C 76% 3.6 mph SSE5.8 kmh SSE 6.3 mph10.1 kmh 29.97 in1014.9 mb 0.00 in0.0 mm 0.00 in0.0 mm 0.01 in0.3 mm
08:36 PM 62.6°F17.0°C 54.9°F12.7°C 76% 3.6 mph S5.8 kmh S 6.3 mph10.1 kmh 29.97 in1014.9 mb 0.00 in0.0 mm 0.00 in0.0 mm 0.01 in0.3 mm
08:31 PM 62.4°F16.9°C 55.0°F12.8°C 77% 3.1 mph SSE5.0 kmh SSE 7.4 mph11.9 kmh 29.97 in1014.9 mb 0.00 in0.0 mm 0.00 in0.0 mm 0.01 in0.3 mm
08:26 PM 62.4°F16.9°C 55.0°F12.8°C 77% 3.6 mph SW5.8 kmh SW 7.4 mph11.9 kmh 29.97 in1014.9 mb 0.00 in0.0 mm 0.00 in0.0 mm 0.01 in0.3 mm
08:21 PM 62.2°F16.8°C 54.9°F12.7°C 77% 4.0 mph S6.4 kmh S 6.3 mph10.1 kmh 29.97 in1014.9 mb 0.00 in0.0 mm 0.00 in0.0 mm 0.01 in0.3 mm
08:16 PM 62.1°F16.7°C 55.0°F12.8°C 78% 3.4 mph S5.5 kmh S 6.3 mph10.1 kmh 29.98 in1015.2 mb 0.00 in0.0 mm 0.00 in0.0 mm 0.01 in0.3 mm
08:11 PM 62.1°F16.7°C 55.4°F13.0°C 79% 3.1 mph S5.0 kmh S 5.4 mph8.7 kmh 29.98 in1015.2 mb 0.00 in0.0 mm 0.00 in0.0 mm 0.01 in0.3 mm
08:06 PM 61.9°F16.6°C 55.2°F12.9°C 79% 3.1 mph S5.0 kmh S 5.4 mph8.7 kmh 29.97 in1014.9 mb 0.00 in0.0 mm 0.00 in0.0 mm 0.01 in0.3 mm
08:01 PM 61.7°F16.5°C 55.0°F12.8°C 79% 3.1 mph SSE5.0 kmh SSE 5.4 mph8.7 kmh 29.97 in1014.9 mb 0.00 in0.0 mm 0.00 in0.0 mm 0.01 in0.3 mm
07:56 PM 61.5°F16.4°C 55.2°F12.9°C 80% 2.9 mph SSE4.7 kmh SSE 5.4 mph8.7 kmh 29.98 in1015.2 mb 0.00 in0.0 mm 0.00 in0.0 mm 0.01 in0.3 mm
07:51 PM 61.3°F16.3°C 55.0°F12.8°C 80% 3.4 mph SE5.5 kmh SE 6.3 mph10.1 kmh 29.97 in1014.9 mb 0.00 in0.0 mm 0.00 in0.0 mm 0.01 in0.3 mm
07:46 PM 61.3°F16.3°C 55.0°F12.8°C 80% 2.9 mph S4.7 kmh S 6.3 mph10.1 kmh 29.98 in1015.2 mb 0.00 in0.0 mm 0.00 in0.0 mm 0.01 in0.3 mm
07:41 PM 61.3°F16.3°C 55.4°F13.0°C 81% 3.4 mph SSE5.5 kmh SSE 6.3 mph10.1 kmh 29.97 in1014.9 mb 0.00 in0.0 mm 0.00 in0.0 mm 0.01 in0.3 mm
07:36 PM 61.0°F16.1°C 55.4°F13.0°C 82% 3.8 mph S6.1 kmh S 5.4 mph8.7 kmh 29.97 in1014.9 mb 0.00 in0.0 mm 0.00 in0.0 mm 0.01 in0.3 mm
07:31 PM 61.0°F16.1°C 55.4°F13.0°C 82% 2.9 mph S4.7 kmh S 5.4 mph8.7 kmh 29.97 in1014.9 mb 0.00 in0.0 mm 0.00 in0.0 mm 0.01 in0.3 mm
07:26 PM 61.0°F16.1°C 55.4°F13.0°C 82% 2.2 mph SE3.5 kmh SE 4.3 mph6.9 kmh 29.97 in1014.9 mb 0.00 in0.0 mm 0.00 in0.0 mm 0.01 in0.3 mm
07:21 PM 61.0°F16.1°C 55.0°F12.8°C 81% 2.5 mph SSE4.0 kmh SSE 4.3 mph6.9 kmh 29.97 in1014.9 mb 0.00 in0.0 mm 0.00 in0.0 mm 0.01 in0.3 mm
07:16 PM 61.2°F16.2°C 55.2°F12.9°C 81% 1.8 mph SE2.9 kmh SE 3.1 mph5.0 kmh 29.97 in1014.9 mb 0.00 in0.0 mm 0.00 in0.0 mm 0.01 in0.3 mm
07:11 PM 61.3°F16.3°C 55.0°F12.8°C 80% 1.6 mph SSE2.6 kmh SSE 3.1 mph5.0 kmh 29.97 in1014.9 mb 0.00 in0.0 mm 0.00 in0.0 mm 0.01 in0.3 mm
07:06 PM 61.5°F16.4°C 55.2°F12.9°C 80% 1.3 mph SE2.1 kmh SE 3.1 mph5.0 kmh 29.97 in1014.9 mb 0.00 in0.0 mm 0.00 in0.0 mm 0.01 in0.3 mm
07:01 PM 61.9°F16.6°C 55.2°F12.9°C 79% 1.8 mph S2.9 kmh S 3.1 mph5.0 kmh 29.96 in1014.6 mb 0.00 in0.0 mm 0.00 in0.0 mm 0.01 in0.3 mm
06:56 PM 62.1°F16.7°C 55.0°F12.8°C 78% 1.8 mph SSE2.9 kmh SSE 3.1 mph5.0 kmh 29.96 in1014.6 mb 0.00 in0.0 mm 0.00 in0.0 mm 0.01 in0.3 mm
06:51 PM 62.4°F16.9°C 55.0°F12.8°C 77% 2.0 mph SE3.2 kmh SE 3.1 mph5.0 kmh 29.96 in1014.6 mb 0.00 in0.0 mm 0.00 in0.0 mm 0.01 in0.3 mm
06:46 PM 62.8°F17.1°C 55.0°F12.8°C 76% 1.6 mph SSE2.6 kmh SSE 2.0 mph3.2 kmh 29.97 in1014.9 mb 0.00 in0.0 mm 0.00 in0.0 mm 0.01 in0.3 mm
06:41 PM 63.1°F17.3°C 55.0°F12.8°C 75% 1.3 mph SSE2.1 kmh SSE 3.1 mph5.0 kmh 29.97 in1014.9 mb 0.00 in0.0 mm 0.00 in0.0 mm 0.01 in0.3 mm
06:36 PM 63.7°F17.6°C 55.2°F12.9°C 74% 1.6 mph S2.6 kmh S 3.1 mph5.0 kmh 29.96 in1014.6 mb 0.00 in0.0 mm 0.00 in0.0 mm 0.01 in0.3 mm
06:31 PM 64.0°F17.8°C 55.2°F12.9°C 73% 2.0 mph SSE3.2 kmh SSE 3.1 mph5.0 kmh 29.97 in1014.9 mb 0.00 in0.0 mm 0.00 in0.0 mm 0.01 in0.3 mm
06:26 PM 64.6°F18.1°C 55.4°F13.0°C 72% 1.8 mph SSE2.9 kmh SSE 4.3 mph6.9 kmh 29.97 in1014.9 mb 0.00 in0.0 mm 0.00 in0.0 mm 0.01 in0.3 mm
06:21 PM 65.1°F18.4°C 55.0°F12.8°C 70% 2.0 mph S3.2 kmh S 3.1 mph5.0 kmh 29.97 in1014.9 mb 0.00 in0.0 mm 0.00 in0.0 mm 0.01 in0.3 mm
06:16 PM 65.7°F18.7°C 55.2°F12.9°C 69% 2.7 mph S4.3 kmh S 4.3 mph6.9 kmh 29.97 in1014.9 mb 0.00 in0.0 mm 0.00 in0.0 mm 0.01 in0.3 mm
06:11 PM 66.4°F19.1°C 55.6°F13.1°C 68% 1.8 mph S2.9 kmh S 3.1 mph5.0 kmh 29.97 in1014.9 mb 0.00 in0.0 mm 0.00 in0.0 mm 0.01 in0.3 mm
06:06 PM 66.7°F19.3°C 55.0°F12.8°C 66% 2.0 mph S3.2 kmh S 3.1 mph5.0 kmh 29.97 in1014.9 mb 0.00 in0.0 mm 0.00 in0.0 mm 0.01 in0.3 mm
06:01 PM 67.3°F19.6°C 54.7°F12.6°C 64% 1.6 mph SSW2.6 kmh SSW 3.1 mph5.0 kmh 29.97 in1014.9 mb 0.00 in0.0 mm 0.00 in0.0 mm 0.01 in0.3 mm
05:56 PM 67.6°F19.8°C 55.0°F12.8°C 64% 2.2 mph SSW3.5 kmh SSW 4.3 mph6.9 kmh 29.96 in1014.6 mb 0.00 in0.0 mm 0.00 in0.0 mm 0.01 in0.3 mm
05:51 PM 68.0°F20.0°C 54.9°F12.7°C 63% 3.1 mph SW5.0 kmh SW 7.4 mph11.9 kmh 29.96 in1014.6 mb 0.00 in0.0 mm 0.00 in0.0 mm 0.01 in0.3 mm
05:46 PM 68.4°F20.2°C 54.9°F12.7°C 62% 3.8 mph SW6.1 kmh SW 6.3 mph10.1 kmh 29.97 in1014.9 mb 0.00 in0.0 mm 0.00 in0.0 mm 0.01 in0.3 mm
05:41 PM 68.7°F20.4°C 54.7°F12.6°C 61% 4.0 mph S6.4 kmh S 7.4 mph11.9 kmh 29.97 in1014.9 mb 0.00 in0.0 mm 0.00 in0.0 mm 0.01 in0.3 mm
05:36 PM 68.9°F20.5°C 54.9°F12.7°C 61% 3.8 mph SSW6.1 kmh SSW 8.5 mph13.7 kmh 29.97 in1014.9 mb 0.00 in0.0 mm 0.00 in0.0 mm 0.01 in0.3 mm
05:31 PM 69.1°F20.6°C 55.0°F12.8°C 61% 4.5 mph SW7.2 kmh SW 11.6 mph18.7 kmh 29.96 in1014.6 mb 0.00 in0.0 mm 0.00 in0.0 mm 0.01 in0.3 mm
05:26 PM 69.3°F20.7°C 55.8°F13.2°C 62% 4.3 mph S6.9 kmh S 9.6 mph15.4 kmh 29.96 in1014.6 mb 0.00 in0.0 mm 0.00 in0.0 mm 0.01 in0.3 mm
05:21 PM 69.4°F20.8°C 55.4°F13.0°C 61% 4.5 mph S7.2 kmh S 12.8 mph20.6 kmh 29.96 in1014.6 mb 0.00 in0.0 mm 0.00 in0.0 mm 0.01 in0.3 mm
05:16 PM 69.8°F21.0°C 55.2°F12.9°C 60% 5.6 mph S9.0 kmh S 12.8 mph20.6 kmh 29.96 in1014.6 mb 0.00 in0.0 mm 0.00 in0.0 mm 0.01 in0.3 mm
05:11 PM 70.2°F21.2°C 55.6°F13.1°C 60% 5.6 mph SW9.0 kmh SW 10.5 mph16.9 kmh 29.96 in1014.6 mb 0.00 in0.0 mm 0.00 in0.0 mm 0.01 in0.3 mm
05:06 PM 70.0°F21.1°C 55.9°F13.3°C 61% 6.3 mph SW10.1 kmh SW 10.5 mph16.9 kmh 29.96 in1014.6 mb 0.00 in0.0 mm 0.00 in0.0 mm 0.01 in0.3 mm
05:01 PM 70.0°F21.1°C 55.9°F13.3°C 61% 4.9 mph SW7.9 kmh SW 10.5 mph16.9 kmh 29.96 in1014.6 mb 0.00 in0.0 mm 0.00 in0.0 mm 0.01 in0.3 mm
04:56 PM 70.2°F21.2°C 56.5°F13.6°C 62% 7.6 mph SW12.2 kmh SW 10.5 mph16.9 kmh 29.96 in1014.6 mb 0.00 in0.0 mm 0.00 in0.0 mm 0.01 in0.3 mm
04:51 PM 70.0°F21.1°C 56.8°F13.8°C 63% 4.9 mph SW7.9 kmh SW 7.4 mph11.9 kmh 29.96 in1014.6 mb 0.00 in0.0 mm 0.00 in0.0 mm 0.01 in0.3 mm
04:46 PM 69.6°F20.9°C 56.5°F13.6°C 63% 5.1 mph SSW8.2 kmh SSW 8.5 mph13.7 kmh 29.96 in1014.6 mb 0.00 in0.0 mm 0.00 in0.0 mm 0.01 in0.3 mm
04:41 PM 69.8°F21.0°C 56.7°F13.7°C 63% 6.3 mph SSW10.1 kmh SSW 9.6 mph15.4 kmh 29.96 in1014.6 mb 0.00 in0.0 mm 0.00 in0.0 mm 0.01 in0.3 mm
04:36 PM 69.6°F20.9°C 56.5°F13.6°C 63% 4.3 mph SSW6.9 kmh SSW 7.4 mph11.9 kmh 29.96 in1014.6 mb 0.00 in0.0 mm 0.00 in0.0 mm 0.01 in0.3 mm
04:31 PM 69.4°F20.8°C 57.2°F14.0°C 65% 2.2 mph SW3.5 kmh SW 6.3 mph10.1 kmh 29.97 in1014.9 mb 0.00 in0.0 mm 0.00 in0.0 mm 0.01 in0.3 mm
04:26 PM 68.5°F20.3°C 56.7°F13.7°C 66% 4.3 mph SW6.9 kmh SW 7.4 mph11.9 kmh 29.97 in1014.9 mb 0.00 in0.0 mm 0.00 in0.0 mm 0.01 in0.3 mm
04:21 PM 68.4°F20.2°C 56.1°F13.4°C 65% 4.9 mph SW7.9 kmh SW 6.3 mph10.1 kmh 29.97 in1014.9 mb 0.00 in0.0 mm 0.00 in0.0 mm 0.01 in0.3 mm
04:16 PM 68.7°F20.4°C 56.1°F13.4°C 64% 4.0 mph SW6.4 kmh SW 8.5 mph13.7 kmh 29.96 in1014.6 mb 0.00 in0.0 mm 0.00 in0.0 mm 0.01 in0.3 mm
04:11 PM 69.3°F20.7°C 55.8°F13.2°C 62% 4.7 mph SW7.6 kmh SW 11.6 mph18.7 kmh 29.96 in1014.6 mb 0.00 in0.0 mm 0.00 in0.0 mm 0.01 in0.3 mm
04:06 PM 70.0°F21.1°C 55.9°F13.3°C 61% 5.6 mph SSE9.0 kmh SSE 12.8 mph20.6 kmh 29.97 in1014.9 mb 0.00 in0.0 mm 0.00 in0.0 mm 0.01 in0.3 mm
04:01 PM 70.5°F21.4°C 55.9°F13.3°C 60% 8.7 mph SW14.0 kmh SW 12.8 mph20.6 kmh 29.96 in1014.6 mb 0.00 in0.0 mm 0.00 in0.0 mm 0.01 in0.3 mm
03:56 PM 71.1°F21.7°C 56.5°F13.6°C 60% 6.3 mph SW10.1 kmh SW 13.9 mph22.4 kmh 29.97 in1014.9 mb 0.00 in0.0 mm 0.00 in0.0 mm 0.01 in0.3 mm
03:51 PM 70.7°F21.5°C 56.7°F13.7°C 61% 5.8 mph SW9.3 kmh SW 11.6 mph18.7 kmh 29.97 in1014.9 mb 0.00 in0.0 mm 0.00 in0.0 mm 0.01 in0.3 mm
03:46 PM 70.5°F21.4°C 55.9°F13.3°C 60% 6.7 mph SW10.8 kmh SW 12.8 mph20.6 kmh 29.97 in1014.9 mb 0.00 in0.0 mm 0.00 in0.0 mm 0.01 in0.3 mm
03:41 PM 71.2°F21.8°C 57.0°F13.9°C 61% 7.2 mph SSW11.6 kmh SSW 11.6 mph18.7 kmh 29.97 in1014.9 mb 0.00 in0.0 mm 0.00 in0.0 mm 0.01 in0.3 mm
03:36 PM 70.3°F21.3°C 56.7°F13.7°C 62% 6.7 mph WSW10.8 kmh WSW 10.5 mph16.9 kmh 29.97 in1014.9 mb 0.00 in0.0 mm 0.00 in0.0 mm 0.01 in0.3 mm
03:31 PM 70.5°F21.4°C 55.9°F13.3°C 60% 6.0 mph WSW9.7 kmh WSW 12.8 mph20.6 kmh 29.97 in1014.9 mb 0.00 in0.0 mm 0.00 in0.0 mm 0.01 in0.3 mm
03:26 PM 71.4°F21.9°C 56.8°F13.8°C 60% 7.2 mph SW11.6 kmh SW 12.8 mph20.6 kmh 29.97 in1014.9 mb 0.00 in0.0 mm 0.00 in0.0 mm 0.01 in0.3 mm
03:21 PM 71.4°F21.9°C 57.2°F14.0°C 61% 9.8 mph WSW15.8 kmh WSW 15.9 mph25.6 kmh 29.97 in1014.9 mb 0.00 in0.0 mm 0.00 in0.0 mm 0.01 in0.3 mm
03:16 PM 70.3°F21.3°C 57.6°F14.2°C 64% 4.7 mph SW7.6 kmh SW 10.5 mph16.9 kmh 29.97 in1014.9 mb 0.00 in0.0 mm 0.00 in0.0 mm 0.01 in0.3 mm
03:11 PM 70.2°F21.2°C 56.5°F13.6°C 62% 6.9 mph WSW11.1 kmh WSW 15.9 mph25.6 kmh 29.97 in1014.9 mb 0.00 in0.0 mm 0.00 in0.0 mm 0.01 in0.3 mm
03:06 PM 71.2°F21.8°C 57.6°F14.2°C 62% 4.0 mph SSE6.4 kmh SSE 9.6 mph15.4 kmh 29.97 in1014.9 mb 0.00 in0.0 mm 0.00 in0.0 mm 0.01 in0.3 mm
03:01 PM 71.8°F22.1°C 57.2°F14.0°C 60% 8.3 mph SW13.4 kmh SW 13.9 mph22.4 kmh 29.97 in1014.9 mb 0.00 in0.0 mm 0.00 in0.0 mm 0.01 in0.3 mm
02:56 PM 71.2°F21.8°C 57.9°F14.4°C 63% 8.3 mph S13.4 kmh S 11.6 mph18.7 kmh 29.97 in1014.9 mb 0.00 in0.0 mm 0.00 in0.0 mm 0.01 in0.3 mm
02:51 PM 70.2°F21.2°C 57.0°F13.9°C 63% 4.0 mph SW6.4 kmh SW 9.6 mph15.4 kmh 29.97 in1014.9 mb 0.00 in0.0 mm 0.00 in0.0 mm 0.01 in0.3 mm
02:46 PM 71.1°F21.7°C 57.4°F14.1°C 62% 8.1 mph SW13.0 kmh SW 12.8 mph20.6 kmh 29.97 in1014.9 mb 0.00 in0.0 mm 0.00 in0.0 mm 0.01 in0.3 mm
02:41 PM 71.2°F21.8°C 57.6°F14.2°C 62% 10.1 mph WSW16.3 kmh WSW 15.9 mph25.6 kmh 29.97 in1014.9 mb 0.00 in0.0 mm 0.00 in0.0 mm 0.01 in0.3 mm
02:36 PM 70.9°F21.6°C 56.8°F13.8°C 61% 6.3 mph WSW10.1 kmh WSW 11.6 mph18.7 kmh 29.97 in1014.9 mb 0.00 in0.0 mm 0.00 in0.0 mm 0.01 in0.3 mm
02:31 PM 70.9°F21.6°C 58.1°F14.5°C 64% 6.9 mph SSW11.1 kmh SSW 12.8 mph20.6 kmh 29.97 in1014.9 mb 0.00 in0.0 mm 0.00 in0.0 mm 0.01 in0.3 mm
02:26 PM 70.5°F21.4°C 58.1°F14.5°C 65% 5.6 mph SSW9.0 kmh SSW 13.9 mph22.4 kmh 29.97 in1014.9 mb 0.00 in0.0 mm 0.00 in0.0 mm 0.01 in0.3 mm
02:21 PM 70.3°F21.3°C 58.5°F14.7°C 66% 7.2 mph SW11.6 kmh SW 13.9 mph22.4 kmh 29.98 in1015.2 mb 0.00 in0.0 mm 0.00 in0.0 mm 0.01 in0.3 mm
02:16 PM 70.2°F21.2°C 58.6°F14.8°C 67% 8.3 mph SW13.4 kmh SW 14.8 mph23.8 kmh 29.97 in1014.9 mb 0.00 in0.0 mm 0.00 in0.0 mm 0.01 in0.3 mm
02:11 PM 69.4°F20.8°C 58.5°F14.7°C 68% 8.7 mph SW14.0 kmh SW 13.9 mph22.4 kmh 29.97 in1014.9 mb 0.00 in0.0 mm 0.00 in0.0 mm 0.01 in0.3 mm
02:06 PM 70.0°F21.1°C 58.1°F14.5°C 66% 5.6 mph S9.0 kmh S 12.8 mph20.6 kmh 29.97 in1014.9 mb 0.00 in0.0 mm 0.00 in0.0 mm 0.01 in0.3 mm
02:01 PM 70.3°F21.3°C 58.5°F14.7°C 66% 9.4 mph S15.1 kmh S 17.0 mph27.4 kmh 29.97 in1014.9 mb 0.00 in0.0 mm 0.00 in0.0 mm 0.01 in0.3 mm
01:56 PM 70.2°F21.2°C 57.9°F14.4°C 65% 8.7 mph S14.0 kmh S 15.9 mph25.6 kmh 29.97 in1014.9 mb 0.00 in0.0 mm 0.00 in0.0 mm 0.01 in0.3 mm
01:51 PM 70.0°F21.1°C 58.5°F14.7°C 67% 9.8 mph SW15.8 kmh SW 17.0 mph27.4 kmh 29.97 in1014.9 mb 0.00 in0.0 mm 0.00 in0.0 mm 0.01 in0.3 mm
01:46 PM 69.6°F20.9°C 59.7°F15.4°C 71% 9.4 mph SSW15.1 kmh SSW 17.0 mph27.4 kmh 29.97 in1014.9 mb 0.00 in0.0 mm 0.00 in0.0 mm 0.01 in0.3 mm
01:41 PM 67.6°F19.8°C 57.9°F14.4°C 71% 8.5 mph WSW13.7 kmh WSW 12.8 mph20.6 kmh 29.97 in1014.9 mb 0.00 in0.0 mm 0.00 in0.0 mm 0.01 in0.3 mm
01:36 PM 67.3°F19.6°C 57.2°F14.0°C 70% 6.0 mph SSW9.7 kmh SSW 13.9 mph22.4 kmh 29.97 in1014.9 mb 0.00 in0.0 mm 0.00 in0.0 mm 0.01 in0.3 mm
01:31 PM 67.3°F19.6°C 56.8°F13.8°C 69% 11.4 mph WSW18.3 kmh WSW 15.9 mph25.6 kmh 29.97 in1014.9 mb 0.00 in0.0 mm 0.00 in0.0 mm 0.01 in0.3 mm
01:26 PM 67.6°F19.8°C 57.0°F13.9°C 69% 7.6 mph SW12.2 kmh SW 15.9 mph25.6 kmh 29.97 in1014.9 mb 0.00 in0.0 mm 0.00 in0.0 mm 0.01 in0.3 mm
01:21 PM 68.2°F20.1°C 57.6°F14.2°C 69% 8.9 mph SW14.3 kmh SW 12.8 mph20.6 kmh 29.97 in1014.9 mb 0.00 in0.0 mm 0.00 in0.0 mm 0.01 in0.3 mm
01:16 PM 68.5°F20.3°C 57.2°F14.0°C 67% 5.6 mph SSW9.0 kmh SSW 15.9 mph25.6 kmh 29.97 in1014.9 mb 0.00 in0.0 mm 0.00 in0.0 mm 0.01 in0.3 mm
01:11 PM 69.4°F20.8°C 57.2°F14.0°C 65% 8.7 mph SW14.0 kmh SW 15.9 mph25.6 kmh 29.97 in1014.9 mb 0.00 in0.0 mm 0.00 in0.0 mm 0.01 in0.3 mm
01:06 PM 70.2°F21.2°C 57.9°F14.4°C 65% 8.7 mph SW14.0 kmh SW 18.1 mph29.1 kmh 29.97 in1014.9 mb 0.00 in0.0 mm 0.00 in0.0 mm 0.01 in0.3 mm
01:01 PM 70.2°F21.2°C 57.4°F14.1°C 64% 10.7 mph WSW17.2 kmh WSW 15.9 mph25.6 kmh 29.96 in1014.6 mb 0.00 in0.0 mm 0.00 in0.0 mm 0.01 in0.3 mm
12:56 PM 69.4°F20.8°C 58.8°F14.9°C 69% 5.6 mph SW9.0 kmh SW 11.6 mph18.7 kmh 29.96 in1014.6 mb 0.00 in0.0 mm 0.00 in0.0 mm 0.01 in0.3 mm
12:51 PM 68.4°F20.2°C 58.3°F14.6°C 70% 5.8 mph SW9.3 kmh SW 9.6 mph15.4 kmh 29.96 in1014.6 mb 0.00 in0.0 mm 0.00 in0.0 mm 0.01 in0.3 mm
12:46 PM 68.4°F20.2°C 57.7°F14.3°C 69% 5.4 mph SW8.7 kmh SW 11.6 mph18.7 kmh 29.96 in1014.6 mb 0.00 in0.0 mm 0.00 in0.0 mm 0.01 in0.3 mm
12:41 PM 68.4°F20.2°C 57.0°F13.9°C 67% 8.3 mph S13.4 kmh S 12.8 mph20.6 kmh 29.96 in1014.6 mb 0.00 in0.0 mm 0.00 in0.0 mm 0.01 in0.3 mm
12:36 PM 69.6°F20.9°C 58.1°F14.5°C 67% 6.9 mph SSE11.1 kmh SSE 12.8 mph20.6 kmh 29.96 in1014.6 mb 0.00 in0.0 mm 0.00 in0.0 mm 0.01 in0.3 mm
12:31 PM 69.4°F20.8°C 57.9°F14.4°C 67% 8.5 mph S13.7 kmh S 14.8 mph23.8 kmh 29.96 in1014.6 mb 0.00 in0.0 mm 0.00 in0.0 mm 0.01 in0.3 mm
12:26 PM 69.6°F20.9°C 57.7°F14.3°C 66% 7.6 mph S12.2 kmh S 13.9 mph22.4 kmh 29.97 in1014.9 mb 0.00 in0.0 mm 0.00 in0.0 mm 0.01 in0.3 mm
12:21 PM 70.0°F21.1°C 59.0°F15.0°C 68% 8.9 mph S14.3 kmh S 14.8 mph23.8 kmh 29.96 in1014.6 mb 0.00 in0.0 mm 0.00 in0.0 mm 0.01 in0.3 mm
12:16 PM 70.0°F21.1°C 58.5°F14.7°C 67% 8.9 mph SW14.3 kmh SW 15.9 mph25.6 kmh 29.96 in1014.6 mb 0.00 in0.0 mm 0.00 in0.0 mm 0.01 in0.3 mm
12:11 PM 69.6°F20.9°C 59.4°F15.2°C 70% 8.7 mph WSW14.0 kmh WSW 12.8 mph20.6 kmh 29.96 in1014.6 mb 0.00 in0.0 mm 0.00 in0.0 mm 0.01 in0.3 mm
12:06 PM 68.4°F20.2°C 58.6°F14.8°C 71% 7.6 mph WSW12.2 kmh WSW 12.8 mph20.6 kmh 29.97 in1014.9 mb 0.00 in0.0 mm 0.00 in0.0 mm 0.01 in0.3 mm
12:01 PM 68.5°F20.3°C 58.3°F14.6°C 70% 8.5 mph SW13.7 kmh SW 12.8 mph20.6 kmh 29.97 in1014.9 mb 0.00 in0.0 mm 0.00 in0.0 mm 0.01 in0.3 mm
11:56 AM 68.5°F20.3°C 58.8°F14.9°C 71% 8.9 mph SW14.3 kmh SW 13.9 mph22.4 kmh 29.97 in1014.9 mb 0.00 in0.0 mm 0.00 in0.0 mm 0.01 in0.3 mm
11:51 AM 67.6°F19.8°C 58.3°F14.6°C 72% 7.6 mph WSW12.2 kmh WSW 12.8 mph20.6 kmh 29.97 in1014.9 mb 0.00 in0.0 mm 0.00 in0.0 mm 0.01 in0.3 mm
11:46 AM 67.5°F19.7°C 58.5°F14.7°C 73% 6.5 mph WSW10.5 kmh WSW 11.6 mph18.7 kmh 29.96 in1014.6 mb 0.00 in0.0 mm 0.00 in0.0 mm 0.01 in0.3 mm
11:41 AM 67.5°F19.7°C 58.5°F14.7°C 73% 8.9 mph SW14.3 kmh SW 13.9 mph22.4 kmh 29.96 in1014.6 mb 0.00 in0.0 mm 0.00 in0.0 mm 0.01 in0.3 mm
11:36 AM 66.6°F19.2°C 58.5°F14.7°C 75% 8.1 mph SW13.0 kmh SW 11.6 mph18.7 kmh 29.96 in1014.6 mb 0.00 in0.0 mm 0.00 in0.0 mm 0.01 in0.3 mm
11:31 AM 66.4°F19.1°C 58.3°F14.6°C 75% 5.4 mph SW8.7 kmh SW 12.8 mph20.6 kmh 29.96 in1014.6 mb 0.00 in0.0 mm 0.00 in0.0 mm 0.01 in0.3 mm
11:26 AM 67.1°F19.5°C 57.7°F14.3°C 72% 7.6 mph WSW12.2 kmh WSW 14.8 mph23.8 kmh 29.96 in1014.6 mb 0.00 in0.0 mm 0.00 in0.0 mm 0.01 in0.3 mm
11:21 AM 68.2°F20.1°C 59.2°F15.1°C 73% 8.1 mph SW13.0 kmh SW 13.9 mph22.4 kmh 29.96 in1014.6 mb 0.00 in0.0 mm 0.00 in0.0 mm 0.01 in0.3 mm
11:16 AM 68.0°F20.0°C 59.4°F15.2°C 74% 7.2 mph S11.6 kmh S 18.1 mph29.1 kmh 29.96 in1014.6 mb 0.00 in0.0 mm 0.00 in0.0 mm 0.01 in0.3 mm
11:11 AM 67.6°F19.8°C 60.3°F15.7°C 77% 5.6 mph WSW9.0 kmh WSW 10.5 mph16.9 kmh 29.96 in1014.6 mb 0.00 in0.0 mm 0.00 in0.0 mm 0.01 in0.3 mm
11:05 AM 66.6°F19.2°C 59.5°F15.3°C 78% 7.2 mph WSW11.6 kmh WSW 12.8 mph20.6 kmh 29.96 in1014.6 mb 0.01 in0.3 mm 0.00 in0.0 mm 0.01 in0.3 mm
11:00 AM 66.0°F18.9°C 59.0°F15.0°C 78% 9.2 mph SW14.8 kmh SW 14.8 mph23.8 kmh 29.96 in1014.6 mb 0.01 in0.3 mm 0.00 in0.0 mm 0.01 in0.3 mm
10:55 AM 65.8°F18.8°C 59.5°F15.3°C 80% 10.5 mph SW16.9 kmh SW 15.9 mph25.6 kmh 29.96 in1014.6 mb 0.01 in0.3 mm 0.00 in0.0 mm 0.01 in0.3 mm
10:50 AM 65.8°F18.8°C 59.9°F15.5°C 81% 7.8 mph SW12.6 kmh SW 12.8 mph20.6 kmh 29.96 in1014.6 mb 0.01 in0.3 mm 0.00 in0.0 mm 0.01 in0.3 mm
10:45 AM 65.7°F18.7°C 59.7°F15.4°C 81% 8.3 mph SW13.4 kmh SW 13.9 mph22.4 kmh 29.96 in1014.6 mb 0.01 in0.3 mm 0.00 in0.0 mm 0.01 in0.3 mm
10:40 AM 65.1°F18.4°C 59.2°F15.1°C 81% 9.2 mph WSW14.8 kmh WSW 15.9 mph25.6 kmh 29.96 in1014.6 mb 0.01 in0.3 mm 0.00 in0.0 mm 0.01 in0.3 mm
10:35 AM 65.5°F18.6°C 59.9°F15.5°C 82% 7.2 mph WSW11.6 kmh WSW 13.9 mph22.4 kmh 29.96 in1014.6 mb 0.01 in0.3 mm 0.00 in0.0 mm 0.01 in0.3 mm
10:30 AM 65.3°F18.5°C 60.1°F15.6°C 83% 5.1 mph SW8.2 kmh SW 11.6 mph18.7 kmh 29.96 in1014.6 mb 0.01 in0.3 mm 0.00 in0.0 mm 0.01 in0.3 mm
10:25 AM 64.6°F18.1°C 59.4°F15.2°C 83% 9.2 mph WSW14.8 kmh WSW 12.8 mph20.6 kmh 29.96 in1014.6 mb 0.01 in0.3 mm 0.00 in0.0 mm 0.01 in0.3 mm
10:20 AM 64.8°F18.2°C 59.5°F15.3°C 83% 8.9 mph SW14.3 kmh SW 15.9 mph25.6 kmh 29.96 in1014.6 mb 0.01 in0.3 mm 0.00 in0.0 mm 0.01 in0.3 mm
10:15 AM 65.3°F18.5°C 60.1°F15.6°C 83% 6.5 mph SSW10.5 kmh SSW 11.6 mph18.7 kmh 29.96 in1014.6 mb 0.01 in0.3 mm 0.00 in0.0 mm 0.01 in0.3 mm
10:10 AM 65.5°F18.6°C 60.4°F15.8°C 84% 6.0 mph SW9.7 kmh SW 9.6 mph15.4 kmh 29.96 in1014.6 mb 0.01 in0.3 mm 0.12 in3.0 mm 0.01 in0.3 mm
10:05 AM 64.8°F18.2°C 59.9°F15.5°C 84% 6.5 mph SSW10.5 kmh SSW 13.9 mph22.4 kmh 29.96 in1014.6 mb 0.00 in0.0 mm 0.00 in0.0 mm 0.00 in0.0 mm
10:00 AM 65.1°F18.4°C 60.4°F15.8°C 85% 4.9 mph SSW7.9 kmh SSW 8.5 mph13.7 kmh 29.95 in1014.2 mb 0.00 in0.0 mm 0.00 in0.0 mm 0.00 in0.0 mm
09:55 AM 64.8°F18.2°C 60.8°F16.0°C 87% 5.6 mph WSW9.0 kmh WSW 11.6 mph18.7 kmh 29.95 in1014.2 mb 0.00 in0.0 mm 0.00 in0.0 mm 0.00 in0.0 mm
09:50 AM 64.0°F17.8°C 60.4°F15.8°C 88% 6.9 mph S11.1 kmh S 11.6 mph18.7 kmh 29.96 in1014.6 mb 0.00 in0.0 mm 0.00 in0.0 mm 0.00 in0.0 mm
09:45 AM 63.7°F17.6°C 60.4°F15.8°C 89% 5.6 mph S9.0 kmh S 14.8 mph23.8 kmh 29.95 in1014.2 mb 0.00 in0.0 mm 0.00 in0.0 mm 0.00 in0.0 mm
09:40 AM 63.0°F17.2°C 60.3°F15.7°C 91% 4.3 mph S6.9 kmh S 8.5 mph13.7 kmh 29.96 in1014.6 mb 0.00 in0.0 mm 0.00 in0.0 mm 0.00 in0.0 mm
09:35 AM 61.9°F16.6°C 59.5°F15.3°C 92% 5.1 mph SSE8.2 kmh SSE 8.5 mph13.7 kmh 29.95 in1014.2 mb 0.00 in0.0 mm 0.00 in0.0 mm 0.00 in0.0 mm
09:30 AM 61.3°F16.3°C 59.0°F15.0°C 92% 5.4 mph SW8.7 kmh SW 8.5 mph13.7 kmh 29.95 in1014.2 mb 0.00 in0.0 mm 0.00 in0.0 mm 0.00 in0.0 mm
09:25 AM 61.3°F16.3°C 59.4°F15.2°C 93% 4.3 mph SSW6.9 kmh SSW 7.4 mph11.9 kmh 29.95 in1014.2 mb 0.00 in0.0 mm 0.00 in0.0 mm 0.00 in0.0 mm
09:20 AM 61.2°F16.2°C 59.2°F15.1°C 93% 4.5 mph SW7.2 kmh SW 10.5 mph16.9 kmh 29.95 in1014.2 mb 0.00 in0.0 mm 0.00 in0.0 mm 0.00 in0.0 mm
09:15 AM 61.2°F16.2°C 59.2°F15.1°C 93% 5.8 mph SW9.3 kmh SW 8.5 mph13.7 kmh 29.95 in1014.2 mb 0.00 in0.0 mm 0.00 in0.0 mm 0.00 in0.0 mm
09:10 AM 60.4°F15.8°C 58.6°F14.8°C 94% 5.6 mph S9.0 kmh S 10.5 mph16.9 kmh 29.95 in1014.2 mb 0.00 in0.0 mm 0.00 in0.0 mm 0.00 in0.0 mm
09:05 AM 60.1°F15.6°C 58.3°F14.6°C 94% 6.3 mph S10.1 kmh S 13.9 mph22.4 kmh 29.95 in1014.2 mb 0.00 in0.0 mm 0.00 in0.0 mm 0.00 in0.0 mm
09:00 AM 60.1°F15.6°C 58.3°F14.6°C 94% 6.0 mph S9.7 kmh S 8.5 mph13.7 kmh 29.95 in1014.2 mb 0.00 in0.0 mm 0.00 in0.0 mm 0.00 in0.0 mm
08:55 AM 59.0°F15.0°C 57.6°F14.2°C 95% 4.5 mph S7.2 kmh S 9.6 mph15.4 kmh 29.95 in1014.2 mb 0.00 in0.0 mm 0.00 in0.0 mm 0.00 in0.0 mm
08:50 AM 58.6°F14.8°C 56.8°F13.8°C 94% 6.0 mph S9.7 kmh S 8.5 mph13.7 kmh 29.95 in1014.2 mb 0.00 in0.0 mm 0.00 in0.0 mm 0.00 in0.0 mm
08:45 AM 58.3°F14.6°C 56.8°F13.8°C 95% 4.9 mph S7.9 kmh S 10.5 mph16.9 kmh 29.95 in1014.2 mb 0.00 in0.0 mm 0.00 in0.0 mm 0.00 in0.0 mm
08:40 AM 58.3°F14.6°C 56.8°F13.8°C 95% 6.3 mph SSW10.1 kmh SSW 9.6 mph15.4 kmh 29.95 in1014.2 mb 0.00 in0.0 mm 0.00 in0.0 mm 0.00 in0.0 mm
08:35 AM 57.9°F14.4°C 56.1°F13.4°C 94% 4.5 mph SSE7.2 kmh SSE 9.6 mph15.4 kmh 29.94 in1013.9 mb 0.00 in0.0 mm 0.00 in0.0 mm 0.00 in0.0 mm
08:30 AM 57.9°F14.4°C 56.5°F13.6°C 95% 4.0 mph SSW6.4 kmh SSW 10.5 mph16.9 kmh 29.94 in1013.9 mb 0.00 in0.0 mm 0.00 in0.0 mm 0.00 in0.0 mm
08:25 AM 57.7°F14.3°C 56.3°F13.5°C 95% 4.5 mph SSW7.2 kmh SSW 8.5 mph13.7 kmh 29.94 in1013.9 mb 0.00 in0.0 mm 0.00 in0.0 mm 0.00 in0.0 mm
08:20 AM 57.7°F14.3°C 56.3°F13.5°C 95% 3.8 mph S6.1 kmh S 11.6 mph18.7 kmh 29.93 in1013.5 mb 0.00 in0.0 mm 0.00 in0.0 mm 0.00 in0.0 mm
08:15 AM 57.7°F14.3°C 56.3°F13.5°C 95% 2.7 mph S4.3 kmh S 6.3 mph10.1 kmh 29.93 in1013.5 mb 0.00 in0.0 mm 0.00 in0.0 mm 0.00 in0.0 mm
08:10 AM 57.6°F14.2°C 56.1°F13.4°C 95% 4.3 mph S6.9 kmh S 9.6 mph15.4 kmh 29.93 in1013.5 mb 0.00 in0.0 mm 0.00 in0.0 mm 0.00 in0.0 mm
08:05 AM 57.6°F14.2°C 56.1°F13.4°C 95% 4.5 mph S7.2 kmh S 10.5 mph16.9 kmh 29.93 in1013.5 mb 0.00 in0.0 mm 0.00 in0.0 mm 0.00 in0.0 mm
08:00 AM 57.6°F14.2°C 56.1°F13.4°C 95% 4.7 mph SSW7.6 kmh SSW 10.5 mph16.9 kmh 29.93 in1013.5 mb 0.00 in0.0 mm 0.00 in0.0 mm 0.00 in0.0 mm
07:55 AM 57.6°F14.2°C 56.1°F13.4°C 95% 3.6 mph S5.8 kmh S 7.4 mph11.9 kmh 29.93 in1013.5 mb 0.00 in0.0 mm 0.00 in0.0 mm 0.00 in0.0 mm
07:50 AM 57.4°F14.1°C 55.6°F13.1°C 94% 4.5 mph S7.2 kmh S 11.6 mph18.7 kmh 29.93 in1013.5 mb 0.00 in0.0 mm 0.00 in0.0 mm 0.00 in0.0 mm
07:45 AM 57.4°F14.1°C 55.6°F13.1°C 94% 3.8 mph SSW6.1 kmh SSW 8.5 mph13.7 kmh 29.93 in1013.5 mb 0.00 in0.0 mm 0.00 in0.0 mm 0.00 in0.0 mm
07:40 AM 57.4°F14.1°C 55.6°F13.1°C 94% 4.5 mph SSW7.2 kmh SSW 7.4 mph11.9 kmh 29.92 in1013.2 mb 0.00 in0.0 mm 0.00 in0.0 mm 0.00 in0.0 mm
07:35 AM 57.4°F14.1°C 55.6°F13.1°C 94% 4.0 mph SSW6.4 kmh SSW 6.3 mph10.1 kmh 29.92 in1013.2 mb 0.00 in0.0 mm 0.00 in0.0 mm 0.00 in0.0 mm
07:30 AM 57.4°F14.1°C 55.6°F13.1°C 94% 3.8 mph SSW6.1 kmh SSW 5.4 mph8.7 kmh 29.92 in1013.2 mb 0.00 in0.0 mm 0.00 in0.0 mm 0.00 in0.0 mm
07:25 AM 57.4°F14.1°C 55.6°F13.1°C 94% 4.7 mph SSW7.6 kmh SSW 7.4 mph11.9 kmh 29.92 in1013.2 mb 0.00 in0.0 mm 0.00 in0.0 mm 0.00 in0.0 mm
07:20 AM 57.4°F14.1°C 55.6°F13.1°C 94% 5.4 mph SW8.7 kmh SW 8.5 mph13.7 kmh 29.91 in1012.9 mb 0.00 in0.0 mm 0.00 in0.0 mm 0.00 in0.0 mm
07:15 AM 57.6°F14.2°C 55.8°F13.2°C 94% 4.7 mph SSW7.6 kmh SSW 11.6 mph18.7 kmh 29.92 in1013.2 mb 0.00 in0.0 mm 0.00 in0.0 mm 0.00 in0.0 mm
07:10 AM 57.6°F14.2°C 55.8°F13.2°C 94% 2.9 mph S4.7 kmh S 7.4 mph11.9 kmh 29.91 in1012.9 mb 0.00 in0.0 mm 0.00 in0.0 mm 0.00 in0.0 mm
07:05 AM 57.4°F14.1°C 55.6°F13.1°C 94% 3.6 mph S5.8 kmh S 6.3 mph10.1 kmh 29.91 in1012.9 mb 0.00 in0.0 mm 0.00 in0.0 mm 0.00 in0.0 mm
07:00 AM 57.6°F14.2°C 55.8°F13.2°C 94% 3.1 mph S5.0 kmh S 7.4 mph11.9 kmh 29.91 in1012.9 mb 0.00 in0.0 mm 0.00 in0.0 mm 0.00 in0.0 mm
06:55 AM 57.4°F14.1°C 55.6°F13.1°C 94% 2.9 mph S4.7 kmh S 5.4 mph8.7 kmh 29.91 in1012.9 mb 0.00 in0.0 mm 0.00 in0.0 mm 0.00 in0.0 mm
06:50 AM 57.6°F14.2°C 55.8°F13.2°C 94% 3.4 mph S5.5 kmh S 5.4 mph8.7 kmh 29.91 in1012.9 mb 0.00 in0.0 mm 0.00 in0.0 mm 0.00 in0.0 mm
06:45 AM 57.6°F14.2°C 56.1°F13.4°C 95% 3.6 mph S5.8 kmh S 7.4 mph11.9 kmh 29.91 in1012.9 mb 0.00 in0.0 mm 0.00 in0.0 mm 0.00 in0.0 mm
06:40 AM 57.6°F14.2°C 56.1°F13.4°C 95% 1.6 mph SW2.6 kmh SW 5.4 mph8.7 kmh 29.91 in1012.9 mb 0.00 in0.0 mm 0.00 in0.0 mm 0.00 in0.0 mm
06:35 AM 57.7°F14.3°C 56.3°F13.5°C 95% 2.7 mph SW4.3 kmh SW 6.3 mph10.1 kmh 29.91 in1012.9 mb 0.00 in0.0 mm 0.00 in0.0 mm 0.00 in0.0 mm
06:30 AM 57.7°F14.3°C 56.3°F13.5°C 95% 3.6 mph S5.8 kmh S 5.4 mph8.7 kmh 29.90 in1012.5 mb 0.00 in0.0 mm 0.00 in0.0 mm 0.00 in0.0 mm
06:25 AM 57.7°F14.3°C 55.9°F13.3°C 94% 2.5 mph SSW4.0 kmh SSW 5.4 mph8.7 kmh 29.90 in1012.5 mb 0.00 in0.0 mm 0.00 in0.0 mm 0.00 in0.0 mm
06:20 AM 57.9°F14.4°C 56.1°F13.4°C 94% 3.1 mph S5.0 kmh S 5.4 mph8.7 kmh 29.90 in1012.5 mb 0.00 in0.0 mm 0.00 in0.0 mm 0.00 in0.0 mm
06:15 AM 57.9°F14.4°C 56.1°F13.4°C 94% 2.2 mph S3.5 kmh S 4.3 mph6.9 kmh 29.90 in1012.5 mb 0.00 in0.0 mm 0.00 in0.0 mm 0.00 in0.0 mm
06:10 AM 58.1°F14.5°C 56.3°F13.5°C 94% 2.2 mph SSW3.5 kmh SSW 4.3 mph6.9 kmh 29.90 in1012.5 mb 0.00 in0.0 mm 0.00 in0.0 mm 0.00 in0.0 mm
06:05 AM 58.3°F14.6°C 56.5°F13.6°C 94% 2.2 mph SSW3.5 kmh SSW 5.4 mph8.7 kmh 29.90 in1012.5 mb 0.00 in0.0 mm 0.00 in0.0 mm 0.00 in0.0 mm
06:00 AM 58.5°F14.7°C 56.7°F13.7°C 94% 1.6 mph SSW2.6 kmh SSW 4.3 mph6.9 kmh 29.90 in1012.5 mb 0.00 in0.0 mm 0.00 in0.0 mm 0.00 in0.0 mm
05:55 AM 58.5°F14.7°C 56.7°F13.7°C 94% 2.9 mph S4.7 kmh S 6.3 mph10.1 kmh 29.89 in1012.2 mb 0.00 in0.0 mm 0.00 in0.0 mm 0.00 in0.0 mm
05:50 AM 58.6°F14.8°C 56.8°F13.8°C 94% 2.9 mph SW4.7 kmh SW 5.4 mph8.7 kmh 29.89 in1012.2 mb 0.00 in0.0 mm 0.00 in0.0 mm 0.00 in0.0 mm
05:45 AM 58.6°F14.8°C 56.8°F13.8°C 94% 3.1 mph S5.0 kmh S 6.3 mph10.1 kmh 29.89 in1012.2 mb 0.00 in0.0 mm 0.00 in0.0 mm 0.00 in0.0 mm
05:40 AM 58.6°F14.8°C 56.8°F13.8°C 94% 2.7 mph SW4.3 kmh SW 6.3 mph10.1 kmh 29.89 in1012.2 mb 0.00 in0.0 mm 0.00 in0.0 mm 0.00 in0.0 mm
05:35 AM 58.8°F14.9°C 57.0°F13.9°C 94% 2.7 mph S4.3 kmh S 7.4 mph11.9 kmh 29.88 in1011.9 mb 0.00 in0.0 mm 0.00 in0.0 mm 0.00 in0.0 mm
05:30 AM 58.8°F14.9°C 57.0°F13.9°C 94% 3.6 mph S5.8 kmh S 6.3 mph10.1 kmh 29.88 in1011.9 mb 0.00 in0.0 mm 0.00 in0.0 mm 0.00 in0.0 mm
05:25 AM 59.0°F15.0°C 57.2°F14.0°C 94% 2.7 mph S4.3 kmh S 9.6 mph15.4 kmh 29.88 in1011.9 mb 0.00 in0.0 mm 0.00 in0.0 mm 0.00 in0.0 mm
05:20 AM 59.0°F15.0°C 57.2°F14.0°C 94% 2.9 mph SSW4.7 kmh SSW 5.4 mph8.7 kmh 29.88 in1011.9 mb 0.00 in0.0 mm 0.00 in0.0 mm 0.00 in0.0 mm
05:15 AM 59.2°F15.1°C 57.4°F14.1°C 94% 3.6 mph S5.8 kmh S 6.3 mph10.1 kmh 29.88 in1011.9 mb 0.00 in0.0 mm 0.00 in0.0 mm 0.00 in0.0 mm
05:10 AM 59.2°F15.1°C 57.4°F14.1°C 94% 3.4 mph S5.5 kmh S 6.3 mph10.1 kmh 29.88 in1011.9 mb 0.00 in0.0 mm 0.00 in0.0 mm 0.00 in0.0 mm
05:05 AM 59.4°F15.2°C 57.6°F14.2°C 94% 3.6 mph S5.8 kmh S 7.4 mph11.9 kmh 29.87 in1011.5 mb 0.00 in0.0 mm 0.00 in0.0 mm 0.00 in0.0 mm
05:00 AM 59.4°F15.2°C 57.6°F14.2°C 94% 3.6 mph S5.8 kmh S 6.3 mph10.1 kmh 29.87 in1011.5 mb 0.00 in0.0 mm 0.00 in0.0 mm 0.00 in0.0 mm
04:55 AM 59.4°F15.2°C 57.6°F14.2°C 94% 3.6 mph S5.8 kmh S 7.4 mph11.9 kmh 29.88 in1011.9 mb 0.00 in0.0 mm 0.00 in0.0 mm 0.00 in0.0 mm
04:50 AM 59.5°F15.3°C 57.7°F14.3°C 94% 3.6 mph S5.8 kmh S 8.5 mph13.7 kmh 29.88 in1011.9 mb 0.00 in0.0 mm 0.00 in0.0 mm 0.00 in0.0 mm
04:45 AM 59.5°F15.3°C 57.7°F14.3°C 94% 4.5 mph S7.2 kmh S 8.5 mph13.7 kmh 29.87 in1011.5 mb 0.00 in0.0 mm 0.00 in0.0 mm 0.00 in0.0 mm
04:40 AM 59.5°F15.3°C 57.7°F14.3°C 94% 5.6 mph S9.0 kmh S 9.6 mph15.4 kmh 29.87 in1011.5 mb 0.00 in0.0 mm 0.00 in0.0 mm 0.00 in0.0 mm
04:35 AM 59.5°F15.3°C 57.7°F14.3°C 94% 5.4 mph S8.7 kmh S 8.5 mph13.7 kmh 29.87 in1011.5 mb 0.00 in0.0 mm 0.00 in0.0 mm 0.00 in0.0 mm
04:30 AM 59.5°F15.3°C 57.7°F14.3°C 94% 3.1 mph SSE5.0 kmh SSE 6.3 mph10.1 kmh 29.87 in1011.5 mb 0.00 in0.0 mm 0.00 in0.0 mm 0.00 in0.0 mm
04:25 AM 59.7°F15.4°C 57.9°F14.4°C 94% 3.8 mph S6.1 kmh S 6.3 mph10.1 kmh 29.87 in1011.5 mb 0.00 in0.0 mm 0.00 in0.0 mm 0.00 in0.0 mm
04:20 AM 59.7°F15.4°C 57.9°F14.4°C 94% 3.6 mph S5.8 kmh S 7.4 mph11.9 kmh 29.87 in1011.5 mb 0.00 in0.0 mm 0.00 in0.0 mm 0.00 in0.0 mm
04:15 AM 59.7°F15.4°C 57.9°F14.4°C 94% 2.7 mph S4.3 kmh S 7.4 mph11.9 kmh 29.87 in1011.5 mb 0.00 in0.0 mm 0.00 in0.0 mm 0.00 in0.0 mm
04:10 AM 59.7°F15.4°C 57.9°F14.4°C 94% 3.4 mph S5.5 kmh S 7.4 mph11.9 kmh 29.87 in1011.5 mb 0.00 in0.0 mm 0.00 in0.0 mm 0.00 in0.0 mm
04:05 AM 59.7°F15.4°C 57.9°F14.4°C 94% 4.0 mph SSW6.4 kmh SSW 7.4 mph11.9 kmh 29.87 in1011.5 mb 0.00 in0.0 mm 0.00 in0.0 mm 0.00 in0.0 mm
04:00 AM 59.7°F15.4°C 57.9°F14.4°C 94% 4.3 mph S6.9 kmh S 8.5 mph13.7 kmh 29.87 in1011.5 mb 0.00 in0.0 mm 0.00 in0.0 mm 0.00 in0.0 mm
03:55 AM 59.7°F15.4°C 57.9°F14.4°C 94% 4.3 mph S6.9 kmh S 8.5 mph13.7 kmh 29.87 in1011.5 mb 0.00 in0.0 mm 0.00 in0.0 mm 0.00 in0.0 mm
03:50 AM 59.9°F15.5°C 58.1°F14.5°C 94% 4.7 mph SSW7.6 kmh SSW 8.5 mph13.7 kmh 29.87 in1011.5 mb 0.00 in0.0 mm 0.00 in0.0 mm 0.00 in0.0 mm
03:45 AM 59.9°F15.5°C 58.1°F14.5°C 94% 3.8 mph SSE6.1 kmh SSE 7.4 mph11.9 kmh 29.87 in1011.5 mb 0.00 in0.0 mm 0.00 in0.0 mm 0.00 in0.0 mm
03:40 AM 59.9°F15.5°C 58.1°F14.5°C 94% 4.3 mph S6.9 kmh S 8.5 mph13.7 kmh 29.87 in1011.5 mb 0.00 in0.0 mm 0.00 in0.0 mm 0.00 in0.0 mm
03:35 AM 59.9°F15.5°C 58.1°F14.5°C 94% 4.5 mph SSW7.2 kmh SSW 8.5 mph13.7 kmh 29.87 in1011.5 mb 0.00 in0.0 mm 0.00 in0.0 mm 0.00 in0.0 mm
03:30 AM 60.1°F15.6°C 58.3°F14.6°C 94% 4.3 mph S6.9 kmh S 7.4 mph11.9 kmh 29.86 in1011.2 mb 0.00 in0.0 mm 0.00 in0.0 mm 0.00 in0.0 mm
03:25 AM 60.1°F15.6°C 58.3°F14.6°C 94% 4.5 mph S7.2 kmh S 6.3 mph10.1 kmh 29.86 in1011.2 mb 0.00 in0.0 mm 0.00 in0.0 mm 0.00 in0.0 mm
03:20 AM 59.9°F15.5°C 58.1°F14.5°C 94% 4.7 mph S7.6 kmh S 7.4 mph11.9 kmh 29.86 in1011.2 mb 0.00 in0.0 mm 0.00 in0.0 mm 0.00 in0.0 mm
03:15 AM 59.9°F15.5°C 58.1°F14.5°C 94% 4.9 mph S7.9 kmh S 7.4 mph11.9 kmh 29.86 in1011.2 mb 0.00 in0.0 mm 0.00 in0.0 mm 0.00 in0.0 mm
03:10 AM 59.9°F15.5°C 58.1°F14.5°C 94% 3.6 mph S5.8 kmh S 6.3 mph10.1 kmh 29.86 in1011.2 mb 0.00 in0.0 mm 0.00 in0.0 mm 0.00 in0.0 mm
03:05 AM 59.9°F15.5°C 58.1°F14.5°C 94% 4.0 mph SSE6.4 kmh SSE 7.4 mph11.9 kmh 29.86 in1011.2 mb 0.00 in0.0 mm 0.00 in0.0 mm 0.00 in0.0 mm
03:00 AM 59.9°F15.5°C 58.1°F14.5°C 94% 4.5 mph S7.2 kmh S 8.5 mph13.7 kmh 29.86 in1011.2 mb 0.00 in0.0 mm 0.00 in0.0 mm 0.00 in0.0 mm
02:55 AM 59.9°F15.5°C 58.1°F14.5°C 94% 3.1 mph S5.0 kmh S 5.4 mph8.7 kmh 29.86 in1011.2 mb 0.00 in0.0 mm 0.00 in0.0 mm 0.00 in0.0 mm
02:50 AM 59.9°F15.5°C 58.1°F14.5°C 94% 4.3 mph S6.9 kmh S 6.3 mph10.1 kmh 29.86 in1011.2 mb 0.00 in0.0 mm 0.00 in0.0 mm 0.00 in0.0 mm
02:45 AM 60.1°F15.6°C 58.3°F14.6°C 94% 4.3 mph S6.9 kmh S 5.4 mph8.7 kmh 29.86 in1011.2 mb 0.00 in0.0 mm 0.00 in0.0 mm 0.00 in0.0 mm
02:40 AM 60.1°F15.6°C 58.3°F14.6°C 94% 2.9 mph SSE4.7 kmh SSE 7.4 mph11.9 kmh 29.86 in1011.2 mb 0.00 in0.0 mm 0.00 in0.0 mm 0.00 in0.0 mm
02:35 AM 60.3°F15.7°C 58.5°F14.7°C 94% 3.6 mph S5.8 kmh S 7.4 mph11.9 kmh 29.86 in1011.2 mb 0.00 in0.0 mm 0.00 in0.0 mm 0.00 in0.0 mm
02:30 AM 60.3°F15.7°C 58.5°F14.7°C 94% 3.1 mph S5.0 kmh S 7.4 mph11.9 kmh 29.86 in1011.2 mb 0.00 in0.0 mm 0.00 in0.0 mm 0.00 in0.0 mm
02:25 AM 60.3°F15.7°C 58.5°F14.7°C 94% 4.9 mph S7.9 kmh S 8.5 mph13.7 kmh 29.86 in1011.2 mb 0.00 in0.0 mm 0.00 in0.0 mm 0.00 in0.0 mm
02:20 AM 60.3°F15.7°C 58.5°F14.7°C 94% 5.1 mph S8.2 kmh S 8.5 mph13.7 kmh 29.86 in1011.2 mb 0.00 in0.0 mm 0.00 in0.0 mm 0.00 in0.0 mm
02:15 AM 60.3°F15.7°C 58.5°F14.7°C 94% 3.6 mph S5.8 kmh S 7.4 mph11.9 kmh 29.86 in1011.2 mb 0.00 in0.0 mm 0.00 in0.0 mm 0.00 in0.0 mm
02:10 AM 60.3°F15.7°C 58.5°F14.7°C 94% 3.1 mph S5.0 kmh S 5.4 mph8.7 kmh 29.86 in1011.2 mb 0.00 in0.0 mm 0.00 in0.0 mm 0.00 in0.0 mm
02:05 AM 60.3°F15.7°C 58.5°F14.7°C 94% 3.6 mph SSW5.8 kmh SSW 7.4 mph11.9 kmh 29.87 in1011.5 mb 0.00 in0.0 mm 0.00 in0.0 mm 0.00 in0.0 mm
02:00 AM 60.3°F15.7°C 58.5°F14.7°C 94% 4.9 mph S7.9 kmh S 8.5 mph13.7 kmh 29.86 in1011.2 mb 0.00 in0.0 mm 0.00 in0.0 mm 0.00 in0.0 mm
01:55 AM 60.3°F15.7°C 58.5°F14.7°C 94% 4.7 mph S7.6 kmh S 8.5 mph13.7 kmh 29.87 in1011.5 mb 0.00 in0.0 mm 0.00 in0.0 mm 0.00 in0.0 mm
01:50 AM 60.3°F15.7°C 58.5°F14.7°C 94% 5.1 mph SSE8.2 kmh SSE 8.5 mph13.7 kmh 29.87 in1011.5 mb 0.00 in0.0 mm 0.00 in0.0 mm 0.00 in0.0 mm
01:45 AM 60.3°F15.7°C 58.5°F14.7°C 94% 4.7 mph S7.6 kmh S 6.3 mph10.1 kmh 29.87 in1011.5 mb 0.00 in0.0 mm 0.00 in0.0 mm 0.00 in0.0 mm
01:40 AM 60.4°F15.8°C 58.6°F14.8°C 94% 3.8 mph SSE6.1 kmh SSE 7.4 mph11.9 kmh 29.86 in1011.2 mb 0.00 in0.0 mm 0.00 in0.0 mm 0.00 in0.0 mm
01:35 AM 60.3°F15.7°C 58.5°F14.7°C 94% 5.1 mph S8.2 kmh S 9.6 mph15.4 kmh 29.87 in1011.5 mb 0.00 in0.0 mm 0.00 in0.0 mm 0.00 in0.0 mm
01:30 AM 60.3°F15.7°C 58.5°F14.7°C 94% 4.0 mph S6.4 kmh S 6.3 mph10.1 kmh 29.86 in1011.2 mb 0.00 in0.0 mm 0.00 in0.0 mm 0.00 in0.0 mm
01:25 AM 60.3°F15.7°C 58.5°F14.7°C 94% 4.3 mph SSE6.9 kmh SSE 7.4 mph11.9 kmh 29.86 in1011.2 mb 0.00 in0.0 mm 0.00 in0.0 mm 0.00 in0.0 mm
01:20 AM 60.3°F15.7°C 58.5°F14.7°C 94% 2.9 mph S4.7 kmh S 5.4 mph8.7 kmh 29.86 in1011.2 mb 0.00 in0.0 mm 0.00 in0.0 mm 0.00 in0.0 mm
01:15 AM 60.3°F15.7°C 58.5°F14.7°C 94% 3.1 mph S5.0 kmh S 6.3 mph10.1 kmh 29.86 in1011.2 mb 0.00 in0.0 mm 0.00 in0.0 mm 0.00 in0.0 mm
01:10 AM 60.3°F15.7°C 58.5°F14.7°C 94% 2.5 mph S4.0 kmh S 6.3 mph10.1 kmh 29.86 in1011.2 mb 0.00 in0.0 mm 0.00 in0.0 mm 0.00 in0.0 mm
01:05 AM 60.3°F15.7°C 58.5°F14.7°C 94% 3.4 mph S5.5 kmh S 6.3 mph10.1 kmh 29.86 in1011.2 mb 0.00 in0.0 mm 0.00 in0.0 mm 0.00 in0.0 mm
01:00 AM 60.3°F15.7°C 58.5°F14.7°C 94% 3.4 mph SSW5.5 kmh SSW 6.3 mph10.1 kmh 29.85 in1010.8 mb 0.00 in0.0 mm 0.00 in0.0 mm 0.00 in0.0 mm
12:55 AM 60.4°F15.8°C 58.6°F14.8°C 94% 2.9 mph S4.7 kmh S 6.3 mph10.1 kmh 29.85 in1010.8 mb 0.00 in0.0 mm 0.00 in0.0 mm 0.00 in0.0 mm
12:50 AM 60.4°F15.8°C 58.6°F14.8°C 94% 3.4 mph S5.5 kmh S 5.4 mph8.7 kmh 29.85 in1010.8 mb 0.00 in0.0 mm 0.00 in0.0 mm 0.00 in0.0 mm
12:45 AM 60.4°F15.8°C 58.6°F14.8°C 94% 4.3 mph S6.9 kmh S 9.6 mph15.4 kmh 29.85 in1010.8 mb 0.00 in0.0 mm 0.00 in0.0 mm 0.00 in0.0 mm
12:40 AM 60.4°F15.8°C 58.6°F14.8°C 94% 3.8 mph S6.1 kmh S 7.4 mph11.9 kmh 29.85 in1010.8 mb 0.00 in0.0 mm 0.00 in0.0 mm 0.00 in0.0 mm
12:35 AM 60.4°F15.8°C 58.6°F14.8°C 94% 4.0 mph SSW6.4 kmh SSW 7.4 mph11.9 kmh 29.85 in1010.8 mb 0.00 in0.0 mm 0.00 in0.0 mm 0.00 in0.0 mm
12:30 AM 60.4°F15.8°C 58.6°F14.8°C 94% 4.5 mph SW7.2 kmh SW 8.5 mph13.7 kmh 29.85 in1010.8 mb 0.00 in0.0 mm 0.00 in0.0 mm 0.00 in0.0 mm
12:25 AM 60.4°F15.8°C 58.6°F14.8°C 94% 3.6 mph S5.8 kmh S 7.4 mph11.9 kmh 29.85 in1010.8 mb 0.00 in0.0 mm 0.00 in0.0 mm 0.00 in0.0 mm
12:20 AM 60.4°F15.8°C 58.6°F14.8°C 94% 4.0 mph S6.4 kmh S 6.3 mph10.1 kmh 29.86 in1011.2 mb 0.00 in0.0 mm 0.00 in0.0 mm 0.00 in0.0 mm
12:15 AM 60.4°F15.8°C 58.6°F14.8°C 94% 3.1 mph SSE5.0 kmh SSE 6.3 mph10.1 kmh 29.85 in1010.8 mb 0.00 in0.0 mm 0.00 in0.0 mm 0.00 in0.0 mm
12:10 AM 60.4°F15.8°C 58.6°F14.8°C 94% 3.6 mph SW5.8 kmh SW 5.4 mph8.7 kmh 29.85 in1010.8 mb 0.00 in0.0 mm 0.00 in0.0 mm 0.00 in0.0 mm
12:05 AM 60.4°F15.8°C 58.6°F14.8°C 94% 4.3 mph S6.9 kmh S 9.6 mph15.4 kmh 29.86 in1011.2 mb 0.00 in0.0 mm 0.00 in0.0 mm 0.00 in0.0 mm
12:00 AM 60.4°F15.8°C 58.6°F14.8°C 94% 3.8 mph S6.1 kmh S 6.3 mph10.1 kmh 29.85 in1010.8 mb 0.00 in0.0 mm 0.00 in0.0 mm 0.00 in0.0 mm